Time;durP1;ratioP1;P1;durP2;ratioP2;P2;SDS_P1;SDS_P2;PMS_P1;PMS_P2;Temp;Humidity;BMP_temperature;BMP_pressure;BME280_temperature;BME280_humidity;BME280_pressure;Samples;Min_cycle;Max_cycle;Signal;HPM_P1;HPM_P2
2023/01/22 00:00:55;;;;;;;33.28;21.52;;;;;;;1.37;70.05;103265.19;5050751;28;20450;-67
2023/01/22 00:03:21;;;;;;;35.28;23.27;;;;;;;1.35;69.83;103268.06;5041952;28;20091;-67
2023/01/22 00:05:46;;;;;;;34.97;22.38;;;;;;;1.35;70.07;103269.94;5052738;28;20110;-66
2023/01/22 00:08:11;;;;;;;34.25;22.23;;;;;;;1.31;69.88;103271.22;5053425;28;20052;-66
2023/01/22 00:10:37;;;;;;;35.10;22.48;;;;;;;1.31;70.16;103268.47;5046618;28;20091;-67
2023/01/22 00:13:02;;;;;;;35.90;23.13;;;;;;;1.28;70.29;103275.06;5049165;28;20037;-66
2023/01/22 00:15:27;;;;;;;33.90;22.38;;;;;;;1.29;69.79;103278.66;5049630;28;20550;-66
2023/01/22 00:17:53;;;;;;;36.25;22.65;;;;;;;1.30;69.59;103272.19;5051010;28;20047;-66
2023/01/22 00:20:18;;;;;;;36.50;22.95;;;;;;;1.31;69.84;103276.69;5044403;28;20068;-66
2023/01/22 00:22:43;;;;;;;36.45;22.48;;;;;;;1.30;69.75;103278.56;5051866;28;20020;-66
2023/01/22 00:25:11;;;;;;;38.08;23.63;;;;;;;1.29;69.88;103275.94;5052169;28;20028;-66
2023/01/22 00:27:37;;;;;;;36.65;23.15;;;;;;;1.30;70.32;103267.63;5051237;28;20028;-67
2023/01/22 00:30:03;;;;;;;33.10;22.73;;;;;;;1.31;70.32;103271.22;5048001;28;20225;-66
2023/01/22 00:32:28;;;;;;;36.60;23.70;;;;;;;1.35;70.60;103273.53;5050649;28;20025;-66
2023/01/22 00:34:53;;;;;;;32.78;22.52;;;;;;;1.33;70.31;103270.06;5052059;28;20082;-67
2023/01/22 00:37:19;;;;;;;34.03;22.58;;;;;;;1.34;70.20;103260.88;5039639;28;20038;-66
2023/01/22 00:39:44;;;;;;;33.03;21.60;;;;;;;1.34;70.62;103252.66;5043227;28;20468;-66
2023/01/22 00:42:10;;;;;;;34.97;23.13;;;;;;;1.31;69.79;103255.66;5051823;28;20029;-66
2023/01/22 00:44:35;;;;;;;33.05;22.55;;;;;;;1.29;69.76;103260.38;5049837;28;20199;-67
2023/01/22 00:47:00;;;;;;;33.40;23.05;;;;;;;1.33;70.10;103250.03;5050600;28;20036;-66
2023/01/22 00:49:26;;;;;;;34.78;22.52;;;;;;;1.32;69.99;103256.53;5052462;28;20472;-66
2023/01/22 00:51:51;;;;;;;30.67;22.02;;;;;;;1.31;70.35;103252.94;5049320;28;20040;-66
2023/01/22 00:54:16;;;;;;;33.85;22.33;;;;;;;1.33;69.84;103258.25;5040003;28;20878;-67
2023/01/22 00:56:41;;;;;;;33.30;22.77;;;;;;;1.32;69.95;103262.00;5042482;28;20036;-66
2023/01/22 00:59:09;;;;;;;35.75;23.20;;;;;;;1.29;70.67;103256.78;5044889;28;20102;-67
2023/01/22 01:01:38;;;;;;;32.35;22.50;;;;;;;1.30;69.88;103253.03;5048610;28;20040;-67
2023/01/22 01:04:03;;;;;;;34.35;23.60;;;;;;;1.30;70.18;103247.56;5051998;28;20046;-66
2023/01/22 01:06:28;;;;;;;31.63;22.73;;;;;;;1.30;69.74;103244.81;5048785;28;20048;-67
2023/01/22 01:08:54;;;;;;;33.97;22.13;;;;;;;1.28;70.45;103244.13;5050454;28;20032;-66
2023/01/22 01:11:22;;;;;;;36.15;22.92;;;;;;;1.27;70.30;103245.13;5040516;28;20347;-67
2023/01/22 01:13:49;;;;;;;33.85;22.48;;;;;;;1.24;70.29;103235.31;5048980;28;20044;-66
2023/01/22 01:16:17;;;;;;;34.92;23.00;;;;;;;1.20;70.35;103234.69;5050848;28;20108;-67
2023/01/22 01:18:42;;;;;;;33.03;22.92;;;;;;;1.21;70.25;103232.81;5049473;28;20052;-66
2023/01/22 01:21:08;;;;;;;31.70;22.75;;;;;;;1.22;70.69;103240.91;5051498;28;20025;-66
2023/01/22 01:23:35;;;;;;;31.55;22.10;;;;;;;1.23;70.88;103236.31;5051452;28;20056;-67
2023/01/22 01:26:07;;;;;;;32.95;22.48;;;;;;;1.20;70.62;103237.44;5049466;28;20538;-67
2023/01/22 01:28:35;;;;;;;33.47;21.88;;;;;;;1.22;69.92;103223.63;5036912;28;20030;-67
2023/01/22 01:31:03;;;;;;;33.55;23.45;;;;;;;1.18;69.87;103231.25;5051337;28;20499;-67
2023/01/22 01:33:28;;;;;;;33.60;23.30;;;;;;;1.18;70.23;103228.50;5049450;28;20017;-66
2023/01/22 01:36:10;;;;;;;31.40;21.50;;;;;;;1.23;70.55;103236.31;5050886;28;20029;-67
2023/01/22 01:38:36;;;;;;;33.13;22.90;;;;;;;1.19;70.53;103232.97;5040605;28;20056;-66
2023/01/22 01:41:02;;;;;;;32.28;22.35;;;;;;;1.16;70.52;103222.28;5044460;28;20416;-66
2023/01/22 01:43:28;;;;;;;30.50;20.77;;;;;;;1.12;69.80;103212.63;5049840;28;20041;-67
2023/01/22 01:45:56;;;;;;;30.77;21.17;;;;;;;1.12;69.89;103209.88;5050141;28;20455;-67
2023/01/22 01:48:33;;;;;;;31.73;21.75;;;;;;;1.14;70.18;103199.69;5047008;28;20108;-66
2023/01/22 01:51:05;;;;;;;30.70;22.15;;;;;;;1.14;70.55;103193.31;5047638;28;20029;-66
2023/01/22 01:53:32;;;;;;;29.70;20.42;;;;;;;1.14;70.20;103193.31;5046273;28;20035;-67
2023/01/22 01:55:59;;;;;;;29.42;21.25;;;;;;;1.10;69.65;103181.81;5034241;28;20571;-66
2023/01/22 01:58:29;;;;;;;31.13;21.45;;;;;;;1.07;70.07;103194.88;5031182;28;20798;-67
2023/01/22 02:00:59;;;;;;;29.50;21.30;;;;;;;1.10;70.48;103180.91;5045619;28;20498;-66
2023/01/22 02:03:27;;;;;;;28.73;20.70;;;;;;;1.09;70.43;103191.00;5049716;28;20064;-67
2023/01/22 02:05:52;;;;;;;28.65;20.75;;;;;;;1.10;70.33;103190.00;5036690;28;20144;-67
2023/01/22 02:08:17;;;;;;;30.58;20.08;;;;;;;1.14;70.38;103179.66;5041478;28;20536;-67
2023/01/22 02:10:43;;;;;;;29.42;20.65;;;;;;;1.07;69.75;103190.28;5048569;28;20033;-66
2023/01/22 02:13:13;;;;;;;29.42;20.63;;;;;;;1.07;70.27;103189.41;5032706;28;20028;-66
2023/01/22 02:15:39;;;;;;;27.83;19.77;;;;;;;1.08;69.70;103188.41;5045515;28;20036;-67
2023/01/22 02:18:04;;;;;;;27.20;20.20;;;;;;;1.07;70.05;103190.28;5044172;28;20037;-66
2023/01/22 02:20:37;;;;;;;27.90;19.50;;;;;;;1.08;70.06;103175.59;5047369;28;20033;-67
2023/01/22 02:23:03;;;;;;;26.77;19.00;;;;;;;1.06;70.27;103173.97;5046974;28;20068;-68
2023/01/22 02:25:29;;;;;;;27.85;19.50;;;;;;;1.09;70.34;103168.25;5048413;28;20068;-67
2023/01/22 02:27:54;;;;;;;26.05;19.63;;;;;;;1.08;70.46;103167.38;5047698;28;20021;-68
2023/01/22 02:30:19;;;;;;;24.75;18.73;;;;;;;1.10;70.13;103169.97;5041183;28;20021;-68
2023/01/22 02:32:44;;;;;;;23.15;18.40;;;;;;;1.08;70.14;103169.25;5049494;28;20025;-68
2023/01/22 02:35:10;;;;;;;25.38;19.20;;;;;;;1.09;69.34;103174.59;5047318;28;20033;-67
2023/01/22 02:37:35;;;;;;;27.15;19.05;;;;;;;1.11;70.22;103178.06;5048165;28;20136;-67
2023/01/22 02:40:00;;;;;;;29.83;19.02;;;;;;;1.11;70.18;103175.34;5050224;28;20025;-68
2023/01/22 02:42:26;;;;;;;28.20;18.75;;;;;;;1.11;69.22;103169.84;5049168;28;20143;-68
2023/01/22 02:44:52;;;;;;;26.25;19.05;;;;;;;1.15;69.85;103185.00;5046821;28;20096;-68
2023/01/22 02:47:18;;;;;;;25.55;18.13;;;;;;;1.13;69.60;103184.25;5036786;28;20104;-68
2023/01/22 02:49:43;;;;;;;23.15;17.38;;;;;;;1.14;69.28;103168.69;5049250;28;20036;-67
2023/01/22 02:52:08;;;;;;;26.60;18.45;;;;;;;1.13;69.16;103173.31;5048828;28;20033;-67
2023/01/22 02:54:34;;;;;;;24.50;17.38;;;;;;;1.16;69.92;103169.44;5048749;28;20578;-67
2023/01/22 02:56:59;;;;;;;23.00;17.40;;;;;;;1.16;70.20;103170.31;5046944;28;20382;-67
2023/01/22 02:59:24;;;;;;;24.73;17.58;;;;;;;1.17;69.59;103179.38;5047132;28;20064;-67
2023/01/22 03:01:50;;;;;;;22.70;16.60;;;;;;;1.22;69.80;103185.34;5048511;28;20029;-67
2023/01/22 03:04:16;;;;;;;21.02;15.93;;;;;;;1.25;69.62;103185.03;5040598;28;20037;-67
2023/01/22 03:06:43;;;;;;;23.73;16.98;;;;;;;1.27;70.00;103183.06;5049621;28;20697;-67
2023/01/22 03:09:10;;;;;;;24.95;17.10;;;;;;;1.28;70.56;103162.03;5046994;28;20594;-68
2023/01/22 03:11:37;;;;;;;20.52;16.02;;;;;;;1.31;70.60;103173.56;5048477;28;20044;-67
2023/01/22 03:22:15;;;;;;;20.40;16.13;;;;;;;1.37;70.48;103173.03;5050334;28;20048;-67
2023/01/22 03:24:41;;;;;;;20.17;16.17;;;;;;;1.39;69.93;103165.56;5052596;28;20107;-67
2023/01/22 03:27:07;;;;;;;21.63;17.67;;;;;;;1.39;70.00;103170.16;5049570;28;20024;-68
2023/01/22 03:29:32;;;;;;;22.98;17.02;;;;;;;1.39;70.17;103164.69;5050153;28;20392;-68
2023/01/22 03:31:57;;;;;;;22.75;17.38;;;;;;;1.40;69.84;103169.16;5050795;28;20460;-68
2023/01/22 03:34:24;;;;;;;21.15;16.27;;;;;;;1.42;70.19;103161.69;5049315;28;20115;-68
2023/01/22 03:36:49;;;;;;;23.80;16.52;;;;;;;1.42;70.59;103165.28;5038301;28;20472;-67
2023/01/22 03:39:15;;;;;;;23.35;17.30;;;;;;;1.44;70.33;103148.72;5050354;28;20067;-68
2023/01/22 03:41:40;;;;;;;23.65;17.10;;;;;;;1.46;70.20;103149.47;5051529;28;20070;-67
2023/01/22 03:44:10;;;;;;;21.25;16.83;;;;;;;1.47;70.02;103140.25;5051903;28;20044;-67
2023/01/22 03:46:36;;;;;;;21.95;16.77;;;;;;;1.48;70.19;103144.69;5051494;28;20057;-67
2023/01/22 03:49:02;;;;;;;25.38;17.92;;;;;;;1.46;70.00;103144.00;5050536;28;20478;-68
2023/01/22 03:51:27;;;;;;;22.20;16.80;;;;;;;1.47;70.21;103130.16;5053819;28;20028;-68
2023/01/22 03:53:52;;;;;;;23.60;17.05;;;;;;;1.44;70.30;103140.50;5040302;28;20023;-68
2023/01/22 03:56:20;;;;;;;22.13;17.35;;;;;;;1.43;69.54;103138.78;5047904;28;20053;-67
2023/01/22 03:58:46;;;;;;;21.85;16.20;;;;;;;1.44;70.05;103140.50;5053277;28;20150;-68
2023/01/22 04:01:21;;;;;;;23.83;17.33;;;;;;;1.45;70.16;103136.75;5052057;28;20534;-67
2023/01/22 04:03:47;;;;;;;21.58;16.23;;;;;;;1.44;69.86;103140.50;5051665;28;20031;-68
2023/01/22 04:06:13;;;;;;;22.65;17.17;;;;;;;1.41;69.59;103138.03;5046498;28;20029;-68
2023/01/22 04:08:40;;;;;;;22.75;17.17;;;;;;;1.40;69.37;103150.00;5051803;28;20083;-67
2023/01/22 04:11:06;;;;;;;20.48;15.30;;;;;;;1.41;70.29;103143.50;5041509;28;20112;-68
2023/01/22 04:13:34;;;;;;;23.73;17.02;;;;;;;1.36;69.88;103143.06;5040916;28;20033;-67
2023/01/22 04:15:59;;;;;;;22.13;16.80;;;;;;;1.36;69.33;103140.34;5051335;28;20036;-68
2023/01/22 04:18:25;;;;;;;21.55;16.55;;;;;;;1.36;69.80;103140.34;5050692;28;20029;-67
2023/01/22 04:20:51;;;;;;;23.95;17.65;;;;;;;1.36;70.07;103140.34;5052048;28;20025;-68
2023/01/22 04:23:17;;;;;;;21.00;16.85;;;;;;;1.34;69.36;103142.34;5048865;28;20055;-68
2023/01/22 04:25:43;;;;;;;25.88;16.77;;;;;;;1.35;69.69;103135.88;5053266;28;20107;-68
2023/01/22 04:28:13;;;;;;;23.00;16.63;;;;;;;1.35;69.70;103149.56;5042291;28;20032;-68
2023/01/22 04:30:39;;;;;;;21.17;16.95;;;;;;;1.34;70.08;103137.75;5043238;28;20064;-68
2023/01/22 04:33:05;;;;;;;22.13;16.48;;;;;;;1.34;69.76;103136.88;5045359;28;20503;-67
2023/01/22 04:35:30;;;;;;;22.83;17.05;;;;;;;1.38;69.56;103149.28;5052364;28;20037;-68
2023/01/22 04:37:56;;;;;;;23.23;17.73;;;;;;;1.36;69.76;103138.47;5049644;28;20076;-68
2023/01/22 04:40:22;;;;;;;23.15;15.88;;;;;;;1.36;69.52;103132.97;5048784;28;20025;-68
2023/01/22 04:42:47;;;;;;;23.60;16.63;;;;;;;1.40;69.39;103139.06;5049332;28;20033;-68
2023/01/22 04:45:13;;;;;;;20.63;16.63;;;;;;;1.39;69.46;103140.06;5040839;28;20029;-68
2023/01/22 04:47:44;;;;;;;22.90;16.67;;;;;;;1.40;70.38;103139.06;5047255;28;20017;-67
2023/01/22 04:50:28;;;;;;;25.20;17.25;;;;;;;1.44;69.89;103135.03;5045867;28;20024;-67
2023/01/22 04:52:55;;;;;;;27.13;16.15;;;;;;;1.41;69.88;103129.84;5046307;28;20033;-68
2023/01/22 04:55:21;;;;;;;20.60;15.25;;;;;;;1.45;69.64;103131.28;5051152;28;20047;-67
2023/01/22 04:57:46;;;;;;;21.38;15.88;;;;;;;1.44;69.97;103135.03;5050819;28;20082;-68
2023/01/22 05:00:12;;;;;;;21.00;16.00;;;;;;;1.45;70.06;103132.19;5049432;28;20028;-67
2023/01/22 05:02:38;;;;;;;20.67;15.77;;;;;;;1.44;69.21;103121.34;5045217;28;20100;-68
2023/01/22 05:05:05;;;;;;;23.17;16.00;;;;;;;1.43;69.76;103128.69;5045819;28;20071;-67
2023/01/22 05:07:30;;;;;;;20.30;15.30;;;;;;;1.43;69.77;103128.69;5051782;28;20037;-68
2023/01/22 05:09:55;;;;;;;20.40;15.18;;;;;;;1.44;69.27;103124.94;5050421;28;20082;-67
2023/01/22 05:12:21;;;;;;;21.02;15.65;;;;;;;1.46;69.02;103139.38;5050793;28;20029;-67
2023/01/22 05:14:46;;;;;;;20.70;15.73;;;;;;;1.44;69.82;103130.44;5051504;28;20036;-67
2023/01/22 05:17:11;;;;;;;20.08;15.32;;;;;;;1.45;69.25;103132.19;5049600;28;20044;-67
2023/01/22 05:19:36;;;;;;;21.48;15.15;;;;;;;1.46;68.89;103122.97;5047457;28;20037;-67
2023/01/22 05:22:03;;;;;;;18.17;14.80;;;;;;;1.44;69.40;103118.63;5042066;28;20098;-67
2023/01/22 05:24:28;;;;;;;20.15;15.05;;;;;;;1.49;69.15;103130.00;5051570;28;20384;-67
2023/01/22 05:26:53;;;;;;;18.58;14.10;;;;;;;1.43;68.48;103136.06;5050678;28;20033;-68
2023/01/22 05:29:24;;;;;;;16.75;13.98;;;;;;;1.43;69.34;103144.25;5048511;28;20132;-68
2023/01/22 05:31:54;;;;;;;19.73;15.40;;;;;;;1.41;69.51;103141.63;5049224;28;20112;-67
2023/01/22 05:34:20;;;;;;;21.30;14.77;;;;;;;1.42;69.52;103146.13;5045517;28;20021;-67
2023/01/22 05:36:46;;;;;;;20.08;15.45;;;;;;;1.41;69.02;103144.38;5049817;28;20083;-67
2023/01/22 05:39:11;;;;;;;18.85;14.88;;;;;;;1.43;68.95;103149.72;5049830;28;20079;-67
2023/01/22 05:41:37;;;;;;;21.83;15.70;;;;;;;1.40;69.02;103142.66;5042627;28;20487;-67
2023/01/22 05:44:03;;;;;;;21.48;15.32;;;;;;;1.41;69.33;103143.50;5048424;28;20029;-67
2023/01/22 05:46:28;;;;;;;21.15;15.45;;;;;;;1.39;68.93;103154.59;5045183;28;20064;-67
2023/01/22 05:48:55;;;;;;;20.67;15.05;;;;;;;1.38;68.89;103147.41;5050271;28;20104;-68
2023/01/22 05:51:20;;;;;;;20.15;15.15;;;;;;;1.40;68.65;103155.47;5048071;28;20025;-67
2023/01/22 05:53:45;;;;;;;19.23;14.70;;;;;;;1.38;68.68;103160.22;5048454;28;20051;-67
2023/01/22 05:56:10;;;;;;;19.48;14.50;;;;;;;1.39;68.84;103162.81;5040838;28;20032;-68
2023/01/22 05:58:36;;;;;;;20.92;16.40;;;;;;;1.40;68.88;103160.94;5044480;28;20457;-67
2023/01/22 06:01:02;;;;;;;20.80;15.18;;;;;;;1.40;68.74;103164.53;5044418;28;20024;-67
2023/01/22 06:03:27;;;;;;;24.30;15.40;;;;;;;1.40;69.28;103169.16;5025738;28;20049;-67
2023/01/22 06:06:04;;;;;;;19.38;15.57;;;;;;;1.43;68.78;103168.88;5047385;28;20036;-67
2023/01/22 06:08:30;;;;;;;18.75;15.52;;;;;;;1.37;69.28;103173.03;5030589;28;20064;-67
2023/01/22 06:11:26;;;;;;;20.20;15.73;;;;;;;1.44;69.05;103168.75;5036853;28;20071;-67
2023/01/22 06:13:51;;;;;;;19.80;15.02;;;;;;;1.40;69.33;103152.72;5035355;28;20094;-67
2023/01/22 06:16:16;;;;;;;19.75;15.05;;;;;;;1.42;69.50;103156.22;5048870;28;20028;-67
2023/01/22 06:18:42;;;;;;;19.10;15.15;;;;;;;1.42;69.62;103161.69;5049974;28;20045;-67
2023/01/22 06:21:08;;;;;;;19.33;15.80;;;;;;;1.42;68.63;103156.22;5041308;28;20028;-67
2023/01/22 06:23:33;;;;;;;21.08;16.58;;;;;;;1.42;69.09;103153.47;5048910;28;20032;-67
2023/01/22 06:26:00;;;;;;;21.08;15.80;;;;;;;1.45;69.49;103165.03;5048756;28;20499;-68
2023/01/22 06:28:27;;;;;;;22.45;16.15;;;;;;;1.45;69.37;103167.75;5049631;28;20476;-67
2023/01/22 06:30:56;;;;;;;19.88;15.70;;;;;;;1.47;68.82;103167.63;5050001;28;20483;-67
2023/01/22 06:33:22;;;;;;;21.30;15.93;;;;;;;1.46;69.26;103168.63;5050070;28;20028;-66
2023/01/22 06:35:53;;;;;;;20.20;15.52;;;;;;;1.48;68.83;103164.72;5045727;28;20036;-66
2023/01/22 06:38:18;;;;;;;21.85;16.25;;;;;;;1.46;68.73;103163.16;5037530;28;20039;-66
2023/01/22 06:40:50;;;;;;;19.73;15.48;;;;;;;1.44;69.86;103166.00;5049777;28;20033;-66
2023/01/22 06:43:15;;;;;;;23.20;16.37;;;;;;;1.45;69.85;103162.28;5048116;28;20052;-66
2023/01/22 06:45:40;;;;;;;20.67;15.55;;;;;;;1.46;69.39;103157.69;5047708;28;20126;-66
2023/01/22 06:48:05;;;;;;;22.60;17.23;;;;;;;1.45;69.32;103156.81;5049972;28;20033;-67
2023/01/22 06:50:31;;;;;;;20.50;15.30;;;;;;;1.46;69.12;103161.28;5044977;28;20043;-66
2023/01/22 06:52:56;;;;;;;19.00;15.35;;;;;;;1.47;69.63;103170.34;5049300;28;20032;-66
2023/01/22 06:55:21;;;;;;;18.67;15.57;;;;;;;1.46;69.99;103174.97;5034102;28;20546;-66
2023/01/22 06:57:46;;;;;;;20.73;16.20;;;;;;;1.47;69.35;103178.56;5033018;28;20025;-66
2023/01/22 07:00:12;;;;;;;20.48;15.55;;;;;;;1.46;69.59;103174.97;5047992;28;20029;-68
2023/01/22 07:02:38;;;;;;;21.67;15.43;;;;;;;1.48;70.15;103175.69;5050313;28;20028;-67
2023/01/22 07:05:03;;;;;;;19.20;15.52;;;;;;;1.51;69.27;103174.53;5046357;28;20044;-67
2023/01/22 07:07:28;;;;;;;18.58;15.10;;;;;;;1.50;69.42;103170.09;5048650;28;20040;-67
2023/01/22 07:09:54;;;;;;;21.15;16.23;;;;;;;1.51;69.80;103170.94;5048868;28;20036;-67
2023/01/22 07:12:19;;;;;;;20.65;15.45;;;;;;;1.52;69.82;103175.41;5031269;28;20079;-66
2023/01/22 07:14:44;;;;;;;21.50;15.70;;;;;;;1.52;69.07;103176.28;5044650;28;20054;-67
2023/01/22 07:17:09;;;;;;;21.15;16.13;;;;;;;1.52;69.54;103170.78;5049908;28;20021;-67
2023/01/22 07:19:35;;;;;;;18.00;15.30;;;;;;;1.51;69.47;103184.63;5046611;28;20036;-66
2023/01/22 07:22:00;;;;;;;20.90;15.70;;;;;;;1.54;69.48;103176.16;5049485;28;20112;-67
2023/01/22 07:24:25;;;;;;;20.55;15.63;;;;;;;1.54;69.86;103178.88;5049789;28;20028;-66
2023/01/22 07:26:51;;;;;;;18.75;15.27;;;;;;;1.54;69.34;103174.28;5043349;28;20029;-67
2023/01/22 07:29:16;;;;;;;21.83;16.35;;;;;;;1.55;69.35;103180.63;5029969;28;20474;-67
2023/01/22 07:31:41;;;;;;;22.38;15.88;;;;;;;1.55;69.73;103175.13;5044562;28;20090;-67
2023/01/22 07:34:07;;;;;;;21.08;15.80;;;;;;;1.56;69.94;103177.72;5027121;28;20083;-68
2023/01/22 07:36:42;;;;;;;22.38;15.68;;;;;;;1.58;70.14;103181.22;5046721;28;20025;-67
2023/01/22 07:39:07;;;;;;;18.55;15.50;;;;;;;1.57;69.69;103182.22;5045327;28;20059;-66
2023/01/22 07:41:32;;;;;;;21.40;15.65;;;;;;;1.59;69.31;103185.66;5048179;28;20108;-66
2023/01/22 07:43:59;;;;;;;19.40;15.77;;;;;;;1.58;69.14;103181.22;5038194;28;20033;-67
2023/01/22 07:46:25;;;;;;;19.83;15.40;;;;;;;1.58;69.67;103175.75;5048223;28;20034;-67
2023/01/22 07:48:50;;;;;;;20.40;15.88;;;;;;;1.57;69.52;103190.44;5041716;28;20498;-67
2023/01/22 07:51:16;;;;;;;20.48;15.57;;;;;;;1.57;69.69;103184.97;5047325;28;20492;-67
2023/01/22 07:53:42;;;;;;;20.05;15.88;;;;;;;1.59;69.81;103187.53;5047149;28;20037;-67
2023/01/22 07:56:07;;;;;;;17.77;14.30;;;;;;;1.60;69.21;103192.88;5045823;28;20811;-67
2023/01/22 07:58:33;;;;;;;19.65;15.55;;;;;;;1.62;69.25;103196.34;5047906;28;20107;-67
2023/01/22 08:00:58;;;;;;;20.73;14.95;;;;;;;1.60;69.73;103186.53;5035674;28;20036;-66
2023/01/22 08:03:24;;;;;;;20.00;15.40;;;;;;;1.62;69.41;103199.09;5045367;28;20098;-67
2023/01/22 08:05:49;;;;;;;18.40;14.77;;;;;;;1.62;69.74;103193.63;5037238;28;20850;-68
2023/01/22 08:08:16;;;;;;;19.70;14.32;;;;;;;1.62;70.12;103198.22;5028056;28;20033;-67
2023/01/22 08:10:42;;;;;;;19.40;14.88;;;;;;;1.61;69.46;103200.09;5030442;28;20048;-68
2023/01/22 08:13:08;;;;;;;21.27;15.48;;;;;;;1.61;69.81;103197.38;5050659;28;20531;-68
2023/01/22 08:15:33;;;;;;;16.98;14.23;;;;;;;1.65;69.59;103200.66;5033921;28;20516;-68
2023/01/22 08:17:59;;;;;;;15.43;13.75;;;;;;;1.66;70.09;103199.69;5040937;28;20036;-68
2023/01/22 08:20:24;;;;;;;17.17;14.20;;;;;;;1.66;69.86;103203.28;5040723;28;20039;-68
2023/01/22 08:22:50;;;;;;;17.35;14.02;;;;;;;1.66;70.22;103191.47;5042946;28;20029;-67
2023/01/22 08:25:16;;;;;;;17.17;13.93;;;;;;;1.69;70.27;103208.50;5051629;28;20037;-68
2023/01/22 08:27:41;;;;;;;16.60;13.43;;;;;;;1.67;70.23;103209.63;5051268;28;20035;-68
2023/01/22 08:30:10;;;;;;;15.90;13.32;;;;;;;1.71;69.60;103211.94;5046957;28;20396;-69
2023/01/22 08:32:37;;;;;;;17.58;13.27;;;;;;;1.71;70.24;103217.44;5046829;28;20064;-68
2023/01/22 08:35:02;;;;;;;17.95;14.68;;;;;;;1.75;70.06;103208.94;5050398;28;20033;-68
2023/01/22 08:37:28;;;;;;;16.08;13.75;;;;;;;1.75;69.81;103217.16;5047831;28;20527;-68
2023/01/22 08:39:53;;;;;;;16.80;14.05;;;;;;;1.75;69.23;103214.41;5050324;28;20028;-68
2023/01/22 08:42:18;;;;;;;18.08;13.55;;;;;;;1.77;70.04;103218.75;5051798;28;20028;-67
2023/01/22 08:44:44;;;;;;;15.50;13.23;;;;;;;1.75;69.73;103218.03;5049622;28;20439;-68
2023/01/22 08:47:10;;;;;;;15.70;12.95;;;;;;;1.82;70.30;103207.41;5048042;28;20021;-71
2023/01/22 08:49:35;;;;;;;17.67;12.73;;;;;;;1.84;70.17;103208.97;5036420;28;20554;-69
2023/01/22 08:52:01;;;;;;;16.00;13.25;;;;;;;1.84;69.58;103219.06;5047642;28;20032;-68
2023/01/22 08:54:26;;;;;;;20.90;13.68;;;;;;;1.84;69.40;103214.44;5049243;28;20533;-68
2023/01/22 08:56:52;;;;;;;18.20;12.52;;;;;;;1.83;69.91;103218.19;5049539;28;20220;-68
2023/01/22 08:59:17;;;;;;;18.63;13.27;;;;;;;2.02;75.13;103209.19;5046045;28;20068;-68
2023/01/22 09:01:42;;;;;;;16.40;13.07;;;;;;;1.96;71.09;103217.94;5047625;28;20438;-66
2023/01/22 09:04:09;;;;;;;17.65;13.02;;;;;;;1.92;70.66;103217.34;5048545;28;20480;-67
2023/01/22 09:06:35;;;;;;;17.65;13.00;;;;;;;1.89;69.39;103216.81;5044344;28;20025;-68
2023/01/22 09:09:02;;;;;;;16.90;12.13;;;;;;;1.87;69.86;103216.91;5040402;28;20482;-67
2023/01/22 09:11:28;;;;;;;15.23;12.35;;;;;;;1.88;69.89;103206.81;5049920;28;20072;-70
2023/01/22 09:13:57;;;;;;;15.70;12.80;;;;;;;1.87;70.54;103216.06;5050865;28;20025;-66
2023/01/22 09:16:23;;;;;;;17.55;12.77;;;;;;;1.84;70.04;103213.59;5049766;28;20029;-67
2023/01/22 09:18:49;;;;;;;14.38;11.50;;;;;;;1.86;69.86;103214.34;5040775;28;20025;-66
2023/01/22 09:21:14;;;;;;;14.57;11.82;;;;;;;1.87;69.95;103218.78;5042816;28;20119;-67
2023/01/22 09:23:39;;;;;;;14.88;12.35;;;;;;;1.88;69.99;103221.38;5047740;28;20052;-66
2023/01/22 09:26:05;;;;;;;15.30;12.05;;;;;;;1.90;70.41;103219.38;5038446;28;20450;-67
2023/01/22 09:28:30;;;;;;;14.57;10.85;;;;;;;1.91;69.89;103218.38;5041553;28;20036;-67
2023/01/22 09:30:55;;;;;;;15.77;13.35;;;;;;;1.93;70.52;103223.72;5047085;28;20511;-68
2023/01/22 09:33:21;;;;;;;16.45;12.98;;;;;;;1.94;69.76;103226.31;5045439;28;20029;-68
2023/01/22 09:35:46;;;;;;;13.32;11.90;;;;;;;1.94;69.55;103219.97;5050372;28;20160;-71
2023/01/22 09:38:12;;;;;;;15.57;12.60;;;;;;;1.94;69.64;103226.31;5048866;28;20053;-70
2023/01/22 09:40:47;;;;;;;17.05;12.40;;;;;;;1.95;69.89;103229.91;5048830;28;20032;-62
2023/01/22 09:43:47;;;;;;;16.08;12.40;;;;;;;2.00;69.78;103226.75;5033115;28;20035;-69
2023/01/22 09:46:23;;;;;;;16.30;12.35;;;;;;;1.98;70.05;103226.91;5031984;28;20052;-68
2023/01/22 09:48:55;;;;;;;16.73;12.25;;;;;;;1.99;70.32;103228.63;5031092;28;20025;-68
2023/01/22 09:51:21;;;;;;;12.45;11.18;;;;;;;1.98;70.05;103237.88;5034083;28;20068;-68
2023/01/22 09:53:54;;;;;;;13.63;11.68;;;;;;;1.98;69.89;103234.28;5041877;28;20060;-68
2023/01/22 09:56:27;;;;;;;14.32;12.23;;;;;;;1.95;70.00;103236.25;5051522;28;20029;-68
2023/01/22 09:58:55;;;;;;;13.82;12.10;;;;;;;1.95;70.74;103232.66;5051118;28;20029;-68
2023/01/22 10:01:22;;;;;;;16.05;11.88;;;;;;;1.95;69.76;103221.72;5050363;28;20021;-67
2023/01/22 10:03:51;;;;;;;15.63;11.93;;;;;;;1.98;69.70;103232.41;5051009;28;20480;-68
2023/01/22 10:06:22;;;;;;;14.73;12.02;;;;;;;1.99;69.82;103228.63;5050833;28;20021;-65
2023/01/22 10:08:57;;;;;;;14.20;11.77;;;;;;;2.01;69.45;103231.25;5038897;28;20048;-67
2023/01/22 10:11:22;;;;;;;13.60;11.50;;;;;;;2.03;69.77;103232.84;5031192;28;20523;-67
2023/01/22 10:13:52;;;;;;;14.43;12.23;;;;;;;2.03;69.61;103240.19;5031351;28;20029;-67
2023/01/22 10:16:17;;;;;;;13.32;11.88;;;;;;;2.02;69.92;103242.06;5030162;28;20037;-67
2023/01/22 10:18:54;;;;;;;14.52;11.43;;;;;;;2.05;69.70;103243.66;5031576;28;20037;-67
2023/01/22 10:21:25;;;;;;;15.27;11.60;;;;;;;2.06;69.34;103249.00;5030598;28;20364;-67
2023/01/22 10:23:54;;;;;;;16.75;11.70;;;;;;;2.06;69.25;103246.25;5036395;28;20025;-67
2023/01/22 10:26:32;;;;;;;14.52;11.88;;;;;;;2.09;69.52;103251.47;5051045;28;20558;-67
2023/01/22 10:29:04;;;;;;;19.73;15.73;;;;;;;2.06;69.93;103249.00;5050445;28;20058;-67
2023/01/22 10:31:33;;;;;;;16.42;13.88;;;;;;;2.08;69.62;103248.84;5051046;28;20037;-67
2023/01/22 10:34:00;;;;;;;15.00;12.18;;;;;;;2.05;69.96;103235.47;5049902;28;20028;-67
2023/01/22 10:36:27;;;;;;;16.33;12.18;;;;;;;2.03;69.89;103232.84;5048880;28;20016;-67
2023/01/22 10:39:03;;;;;;;13.10;11.75;;;;;;;2.05;69.89;103216.28;5050485;28;20116;-67
2023/01/22 10:41:29;;;;;;;12.75;11.30;;;;;;;2.05;69.61;103235.47;5041628;28;20041;-67
2023/01/22 10:43:54;;;;;;;13.88;11.88;;;;;;;2.06;70.04;103229.81;5049853;28;20404;-67
2023/01/22 10:46:25;;;;;;;13.23;11.93;;;;;;;2.07;70.24;103227.94;5050461;28;20025;-67
2023/01/22 10:49:05;;;;;;;12.65;11.30;;;;;;;2.08;69.75;103232.41;5050567;28;20488;-67
2023/01/22 10:51:35;;;;;;;13.30;11.82;;;;;;;2.05;69.71;103243.66;5039148;28;20377;-67
2023/01/22 10:54:01;;;;;;;12.90;11.35;;;;;;;2.09;70.34;103239.66;5050878;28;20021;-67
2023/01/22 10:56:33;;;;;;;13.25;11.48;;;;;;;2.09;70.10;103245.13;5049891;28;20388;-67
2023/01/22 10:59:04;;;;;;;14.35;12.45;;;;;;;2.09;69.80;103250.59;5048509;28;20059;-67
2023/01/22 11:01:36;;;;;;;16.17;12.13;;;;;;;2.08;70.39;103246.97;5050405;28;20040;-67
2023/01/22 11:04:21;;;;;;;12.85;11.55;;;;;;;2.13;70.41;103249.31;5045856;28;20028;-67
2023/01/22 11:06:53;;;;;;;13.40;12.00;;;;;;;2.08;70.06;103240.63;5040734;28;20029;-67
2023/01/22 11:09:35;;;;;;;16.15;12.23;;;;;;;2.11;69.76;103230.25;5050272;28;20057;-67
2023/01/22 11:12:14;;;;;;;18.03;13.13;;;;;;;2.13;69.97;103220.03;5049117;28;20431;-67
2023/01/22 11:14:39;;;;;;;17.63;13.55;;;;;;;2.12;70.15;103215.59;5050053;28;20543;-67
2023/01/22 11:17:19;;;;;;;15.30;12.63;;;;;;;2.11;70.04;103211.09;5049502;28;20053;-67
2023/01/22 11:19:54;;;;;;;15.55;11.95;;;;;;;2.12;70.35;103217.44;5049223;28;20396;-67
2023/01/22 11:22:25;;;;;;;14.40;10.88;;;;;;;2.12;70.22;103215.59;5050163;28;20029;-67
2023/01/22 11:24:50;;;;;;;15.45;11.60;;;;;;;2.14;70.76;103215.44;5032145;28;20037;-67